Time;durP1;ratioP1;P1;durP2;ratioP2;P2;SDS_P1;SDS_P2;PMS_P1;PMS_P2;Temp;Humidity;BMP_temperature;BMP_pressure;BME280_temperature;BME280_humidity;BME280_pressure;Samples;Min_cycle;Max_cycle;Signal;HPM_P1;HPM_P2
2022/03/14 00:00:25;;;;;;;3.30;3.10;;;10.10;99.90;;;;;;5097101;28;20217;-87
2022/03/14 00:03:45;;;;;;;3.42;3.13;;;10.10;99.90;;;;;;5100659;28;20447;-88
2022/03/14 00:06:46;;;;;;;2.80;2.60;;;10.10;99.90;;;;;;5086422;28;20205;-82
2022/03/14 00:12:38;;;;;;;3.40;3.10;;;10.00;99.90;;;;;;5098197;28;20667;-88
2022/03/14 00:15:25;;;;;;;3.37;3.17;;;9.90;99.90;;;;;;5100483;28;20265;-79
2022/03/14 00:18:42;;;;;;;3.20;2.97;;;9.90;99.90;;;;;;5083260;28;20222;-89
2022/03/14 00:21:35;;;;;;;3.33;3.07;;;10.00;99.90;;;;;;5096620;28;20200;-85
2022/03/14 00:37:30;;;;;;;3.70;3.40;;;9.80;99.90;;;;;;5087958;28;20675;-86
2022/03/14 00:43:20;;;;;;;3.80;3.43;;;9.70;99.90;;;;;;5101291;28;20228;-82
2022/03/14 00:46:39;;;;;;;4.20;3.90;;;9.70;99.90;;;;;;5101529;28;20205;-80
2022/03/14 00:52:38;;;;;;;4.23;3.90;;;9.70;99.90;;;;;;5100635;28;20188;-86
2022/03/14 00:58:29;;;;;;;4.30;3.93;;;9.70;99.90;;;;;;5093973;28;20188;-89
2022/03/14 01:04:28;;;;;;;4.33;4.07;;;9.50;99.90;;;;;;5101577;28;20240;-78
2022/03/14 01:10:19;;;;;;;4.73;4.33;;;9.50;99.90;;;;;;5101386;28;20180;-79
2022/03/14 01:12:57;;;;;;;4.90;4.60;;;9.50;99.90;;;;;;5099688;28;20261;-83
2022/03/14 01:15:54;;;;;;;4.63;4.40;;;9.50;99.90;;;;;;5100564;28;20268;-81
2022/03/14 01:18:49;;;;;;;4.83;4.57;;;9.50;99.90;;;;;;5101159;28;20240;-78
2022/03/14 01:21:16;;;;;;;5.13;4.73;;;9.50;99.90;;;;;;5100945;28;20174;-79
2022/03/14 01:23:45;;;;;;;5.53;5.13;;;9.50;99.90;;;;;;5087254;28;20221;-79
2022/03/14 01:26:29;;;;;;;5.80;5.40;;;9.40;99.90;;;;;;5094843;28;20237;-79
2022/03/14 01:28:57;;;;;;;5.33;4.83;;;9.40;99.90;;;;;;5094641;28;20220;-78
2022/03/14 01:34:47;;;;;;;5.73;5.10;;;9.50;99.90;;;;;;5095582;28;20215;-80
2022/03/14 01:37:18;;;;;;;5.40;4.90;;;9.50;99.90;;;;;;5093707;28;20206;-87
2022/03/14 01:39:53;;;;;;;6.10;5.60;;;9.50;99.90;;;;;;5095081;28;20217;-80
2022/03/14 01:42:23;;;;;;;6.60;6.10;;;9.50;99.90;;;;;;5087768;28;20428;-85
2022/03/14 01:44:49;;;;;;;5.60;5.20;;;9.60;99.90;;;;;;5087262;28;20233;-86
2022/03/14 01:47:20;;;;;;;6.60;5.93;;;9.50;99.90;;;;;;5077357;28;20206;-88
2022/03/14 01:49:50;;;;;;;9.17;5.50;;;9.50;99.90;;;;;;5076098;28;20205;-87
2022/03/14 01:52:18;;;;;;;5.00;4.67;;;9.60;99.90;;;;;;5076134;28;20287;-85
2022/03/14 01:55:15;;;;;;;5.20;4.80;;;9.60;99.90;;;;;;5081557;28;20202;-82
2022/03/14 01:58:14;;;;;;;5.90;4.97;;;9.50;99.90;;;;;;5085420;28;20660;-85
2022/03/14 02:00:47;;;;;;;6.50;5.13;;;9.50;99.90;;;;;;5086233;28;20190;-79
2022/03/14 02:03:20;;;;;;;7.57;5.37;;;9.40;99.90;;;;;;5096851;28;20273;-79
2022/03/14 02:06:41;;;;;;;6.68;6.07;;;9.40;99.90;;;;;;5095110;28;20474;-79
2022/03/14 02:09:35;;;;;;;6.80;6.20;;;9.50;99.90;;;;;;5092601;28;20210;-85
2022/03/14 02:12:10;;;;;;;8.40;6.13;;;9.40;99.90;;;;;;5077148;28;20202;-87
2022/03/14 02:15:06;;;;;;;6.83;6.23;;;9.40;99.90;;;;;;5073543;28;20213;-78
2022/03/14 02:17:34;;;;;;;7.10;6.50;;;9.30;99.90;;;;;;5097581;28;20197;-79
2022/03/14 02:20:13;;;;;;;7.40;6.90;;;9.30;99.90;;;;;;5097412;28;20211;-84
2022/03/14 02:25:23;;;;;;;7.93;7.23;;;9.50;99.90;;;;;;5090052;28;20239;-78
2022/03/14 02:27:58;;;;;;;8.90;7.10;;;9.40;99.90;;;;;;5097504;28;20185;-79
2022/03/14 02:30:28;;;;;;;9.57;8.68;;;9.40;99.90;;;;;;5093692;28;20438;-79
2022/03/14 02:33:15;;;;;;;9.07;7.60;;;9.30;99.90;;;;;;5098406;28;20170;-79
2022/03/14 02:36:02;;;;;;;9.93;8.87;;;9.30;99.90;;;;;;5096735;28;20208;-81
2022/03/14 02:38:55;;;;;;;11.20;8.17;;;9.30;99.90;;;;;;5097505;28;20209;-79
2022/03/14 02:41:47;;;;;;;11.73;9.17;;;9.30;99.90;;;;;;5092435;28;20215;-79
2022/03/14 02:44:27;;;;;;;10.47;9.40;;;9.30;99.90;;;;;;5092607;28;20327;-81
2022/03/14 02:46:56;;;;;;;9.70;8.77;;;9.30;99.90;;;;;;5089005;28;20208;-86
2022/03/14 02:49:24;;;;;;;9.87;9.07;;;9.20;99.90;;;;;;5082950;28;20196;-80
2022/03/14 02:52:01;;;;;;;9.60;8.80;;;9.20;99.90;;;;;;5083511;28;20226;-82
2022/03/14 02:54:34;;;;;;;9.50;8.70;;;9.20;99.90;;;;;;5084188;28;20206;-79
2022/03/14 02:57:01;;;;;;;9.33;8.43;;;9.30;99.90;;;;;;5076451;28;20233;-82
2022/03/14 02:59:36;;;;;;;9.93;9.03;;;9.30;99.90;;;;;;5079854;28;20654;-84
2022/03/14 03:02:06;;;;;;;10.37;9.37;;;9.30;99.90;;;;;;5080540;28;20652;-83
2022/03/14 03:04:33;;;;;;;13.23;9.80;;;9.30;99.90;;;;;;5062859;28;20225;-80
2022/03/14 03:07:02;;;;;;;10.53;9.47;;;9.40;99.90;;;;;;5079596;28;20197;-84
2022/03/14 03:09:30;;;;;;;11.27;9.93;;;9.40;99.90;;;;;;5074706;28;20662;-80
2022/03/14 03:12:02;;;;;;;13.53;10.80;;;9.30;99.90;;;;;;5074689;28;20206;-80
2022/03/14 03:14:30;;;;;;;10.90;9.90;;;9.40;99.90;;;;;;5065251;28;20272;-80
2022/03/14 03:16:56;;;;;;;11.70;10.70;;;9.30;99.90;;;;;;5019530;28;20246;-81
2022/03/14 03:19:42;;;;;;;14.15;12.65;;;9.40;99.90;;;;;;5056293;28;20784;-79
2022/03/14 03:22:20;;;;;;;12.97;11.53;;;9.40;99.90;;;;;;5058975;28;20212;-79
2022/03/14 03:24:49;;;;;;;13.17;11.83;;;9.20;99.90;;;;;;5054712;28;20229;-80
2022/03/14 03:27:40;;;;;;;16.03;11.80;;;9.30;99.90;;;;;;5053190;28;20202;-80
2022/03/14 03:30:14;;;;;;;18.03;12.77;;;9.30;99.90;;;;;;5058365;28;20206;-79
2022/03/14 03:32:46;;;;;;;14.23;12.27;;;9.30;99.90;;;;;;5041437;28;20202;-79
2022/03/14 03:35:15;;;;;;;16.00;13.37;;;9.30;99.90;;;;;;5038088;28;20183;-79
2022/03/14 03:40:41;;;;;;;15.33;13.73;;;9.40;99.90;;;;;;5061021;28;20653;-79
2022/03/14 03:43:11;;;;;;;18.33;14.10;;;9.30;99.90;;;;;;5059299;28;20202;-79
2022/03/14 03:45:38;;;;;;;17.10;15.50;;;9.40;99.90;;;;;;5055307;28;20456;-79
2022/03/14 03:48:09;;;;;;;16.30;14.17;;;9.50;99.90;;;;;;5059283;28;20210;-79
2022/03/14 03:50:36;;;;;;;20.20;13.47;;;9.50;99.90;;;;;;5057801;28;20213;-79
2022/03/14 03:53:13;;;;;;;15.70;12.93;;;9.40;99.90;;;;;;5042749;28;20293;-79
2022/03/14 03:55:41;;;;;;;14.43;12.90;;;9.40;99.90;;;;;;5061438;28;20199;-80
2022/03/14 03:58:11;;;;;;;16.27;13.73;;;9.40;99.90;;;;;;5058112;28;20237;-79
2022/03/14 04:00:38;;;;;;;14.60;13.10;;;9.30;99.90;;;;;;5055911;28;20186;-79
2022/03/14 04:03:08;;;;;;;18.17;14.33;;;9.20;99.90;;;;;;5055646;28;20194;-78
2022/03/14 04:05:41;;;;;;;16.67;13.93;;;9.30;99.90;;;;;;5053874;28;20249;-78
2022/03/14 04:08:14;;;;;;;17.10;13.40;;;9.30;99.90;;;;;;5054977;28;20203;-78
2022/03/14 04:10:43;;;;;;;22.80;13.90;;;9.30;99.90;;;;;;5052075;28;20209;-79
2022/03/14 04:13:18;;;;;;;15.77;13.43;;;9.40;99.90;;;;;;5053285;28;20226;-80
2022/03/14 04:15:51;;;;;;;20.43;13.97;;;9.40;99.90;;;;;;5052613;28;20569;-80
2022/03/14 04:18:18;;;;;;;14.77;13.27;;;9.40;99.90;;;;;;5052129;28;20214;-79
2022/03/14 04:20:52;;;;;;;16.13;13.50;;;9.50;99.90;;;;;;5052753;28;20301;-79
2022/03/14 04:23:21;;;;;;;17.27;13.80;;;9.50;99.90;;;;;;5051921;28;20289;-79
2022/03/14 04:25:48;;;;;;;17.57;14.73;;;9.60;99.90;;;;;;5051979;28;20227;-81
2022/03/14 04:28:17;;;;;;;16.93;13.83;;;9.70;99.90;;;;;;5052258;28;20215;-80
2022/03/14 04:30:46;;;;;;;16.97;13.87;;;9.60;99.90;;;;;;5051986;28;20213;-80
